createdAt,value
2018-10-12T00:01:44.141Z,18.30
2018-10-12T00:04:12.390Z,16.30
2018-10-12T00:06:40.586Z,17.37
2018-10-12T00:09:10.242Z,17.53
2018-10-12T00:11:38.778Z,17.77
2018-10-12T00:14:07.854Z,18.60
2018-10-12T00:16:35.994Z,17.63
2018-10-12T00:19:04.537Z,17.67
2018-10-12T00:21:32.910Z,16.90
2018-10-12T00:24:01.040Z,17.87
2018-10-12T00:26:29.291Z,18.10
2018-10-12T00:28:57.446Z,17.60
2018-10-12T00:31:25.652Z,17.60
2018-10-12T00:33:53.790Z,17.70
2018-10-12T00:36:21.804Z,18.73
2018-10-12T00:38:49.953Z,17.43
2018-10-12T00:41:18.294Z,17.33
2018-10-12T00:43:46.640Z,17.17
2018-10-12T00:46:14.796Z,17.37
2018-10-12T00:48:43.205Z,16.93
2018-10-12T00:51:11.481Z,16.43
2018-10-12T00:53:40.025Z,16.87
2018-10-12T00:56:08.427Z,16.67
2018-10-12T00:58:36.664Z,16.50
2018-10-12T01:01:04.906Z,17.30
2018-10-12T01:03:33.158Z,16.43
2018-10-12T01:06:01.553Z,14.40
2018-10-12T01:08:29.708Z,13.40
2018-10-12T01:10:57.944Z,12.77
2018-10-12T01:13:26.204Z,12.10
2018-10-12T01:15:54.454Z,12.17
2018-10-12T01:18:22.752Z,12.23
2018-10-12T01:20:51.097Z,12.50
2018-10-12T01:23:19.406Z,12.63
2018-10-12T01:25:47.889Z,13.43
2018-10-12T01:28:16.166Z,14.30
2018-10-12T01:30:44.547Z,13.17
2018-10-12T01:33:14.081Z,13.27
2018-10-12T01:35:42.292Z,14.33
2018-10-12T01:38:10.833Z,13.77
2018-10-12T01:40:39.180Z,14.40
2018-10-12T01:43:07.309Z,14.47
2018-10-12T01:45:35.454Z,12.80
2018-10-12T01:48:03.720Z,12.17
2018-10-12T01:50:32.005Z,13.00
2018-10-12T01:53:00.389Z,14.03
2018-10-12T01:55:28.686Z,14.13
2018-10-12T01:57:56.850Z,16.10
2018-10-12T02:00:25.321Z,14.47
2018-10-12T02:02:53.969Z,14.73
2018-10-12T02:05:22.410Z,15.87
2018-10-12T02:07:50.731Z,14.53
2018-10-12T02:10:18.969Z,14.47
2018-10-12T02:12:47.172Z,14.10
2018-10-12T02:15:15.890Z,13.90
2018-10-12T02:17:44.075Z,14.67
2018-10-12T02:20:12.655Z,14.90
2018-10-12T02:22:41.372Z,15.13
2018-10-12T02:25:10.674Z,15.63
2018-10-12T02:27:39.367Z,16.33
2018-10-12T02:30:08.764Z,15.70
2018-10-12T02:32:37.482Z,15.97
2018-10-12T02:35:06.192Z,16.47
2018-10-12T02:37:34.372Z,16.90
2018-10-12T02:40:02.773Z,16.90
2018-10-12T02:42:31.106Z,19.73
2018-10-12T02:44:59.205Z,27.10
2018-10-12T02:47:27.343Z,27.40
2018-10-12T02:49:55.545Z,21.73
2018-10-12T02:52:23.918Z,26.27
2018-10-12T02:54:52.193Z,36.57
2018-10-12T02:57:20.760Z,40.93
2018-10-12T02:59:49.723Z,36.03
2018-10-12T03:02:17.979Z,39.03
2018-10-12T03:04:46.254Z,39.67
2018-10-12T03:07:14.673Z,34.73
2018-10-12T03:09:43.073Z,30.67
2018-10-12T03:12:11.326Z,27.53
2018-10-12T03:14:39.950Z,30.73
2018-10-12T03:17:08.397Z,28.90
2018-10-12T03:19:36.687Z,26.93
2018-10-12T03:22:04.851Z,27.90
2018-10-12T03:24:34.255Z,27.33
2018-10-12T03:27:02.439Z,28.53
2018-10-12T03:29:31.159Z,24.77
2018-10-12T03:31:59.639Z,23.47
2018-10-12T03:34:28.149Z,19.83
2018-10-12T03:36:56.807Z,17.77
2018-10-12T03:39:25.081Z,23.13
2018-10-12T03:41:53.389Z,22.57
2018-10-12T03:44:21.631Z,21.00
2018-10-12T03:46:50.189Z,23.17
2018-10-12T03:49:18.465Z,22.53
2018-10-12T03:51:46.661Z,18.57
2018-10-12T03:54:15.013Z,18.87
2018-10-12T03:56:43.171Z,20.30
2018-10-12T03:59:11.309Z,20.27
2018-10-12T04:01:39.692Z,20.73
2018-10-12T04:04:07.956Z,18.90
2018-10-12T04:06:36.674Z,18.20
2018-10-12T04:09:06.875Z,19.03
2018-10-12T04:11:35.068Z,17.10
2018-10-12T04:14:03.401Z,18.53
2018-10-12T04:16:31.672Z,20.50
2018-10-12T04:19:00.043Z,16.70
2018-10-12T04:21:28.348Z,17.13
2018-10-12T04:23:56.436Z,16.93
2018-10-12T04:26:24.786Z,17.30
2018-10-12T04:28:52.843Z,16.93
2018-10-12T04:31:20.974Z,16.93
2018-10-12T04:33:49.445Z,17.33
2018-10-12T04:36:17.584Z,16.83
2018-10-12T04:40:01.961Z,17.10
2018-10-12T04:42:30.398Z,14.63
2018-10-12T04:44:58.819Z,17.20
2018-10-12T04:47:30.528Z,18.17
2018-10-12T04:49:59.855Z,16.07
2018-10-12T04:52:31.025Z,15.07
2018-10-12T04:54:59.390Z,15.07
2018-10-12T04:57:27.725Z,15.43
2018-10-12T04:59:56.204Z,15.00
2018-10-12T05:02:24.736Z,14.97
2018-10-12T05:04:52.988Z,14.13
2018-10-12T05:07:21.067Z,15.40
2018-10-12T05:09:49.364Z,15.23
2018-10-12T05:12:17.547Z,15.40
2018-10-12T05:14:45.722Z,14.40
2018-10-12T05:17:14.066Z,13.57
2018-10-12T05:19:42.188Z,14.27
2018-10-12T05:22:10.764Z,14.50
2018-10-12T05:24:39.077Z,13.60
2018-10-12T05:27:07.534Z,14.77
2018-10-12T05:29:35.687Z,15.70
2018-10-12T05:32:04.084Z,14.83
2018-10-12T05:34:32.553Z,14.17
2018-10-12T05:37:00.704Z,13.53
2018-10-12T05:39:28.914Z,13.80
2018-10-12T05:41:57.569Z,14.87
2018-10-12T05:44:25.766Z,15.53
2018-10-12T05:46:54.290Z,15.13
2018-10-12T05:49:39.579Z,15.17
2018-10-12T05:52:07.897Z,15.20
2018-10-12T05:54:36.222Z,13.50
2018-10-12T05:57:04.536Z,15.20
2018-10-12T05:59:33.041Z,13.50
2018-10-12T06:02:01.626Z,13.67
2018-10-12T06:04:30.229Z,13.97
2018-10-12T06:06:58.414Z,13.33
2018-10-12T06:09:26.649Z,14.67
2018-10-12T06:11:54.769Z,14.57
2018-10-12T06:14:22.954Z,13.87
2018-10-12T06:16:51.454Z,13.90
2018-10-12T06:19:19.563Z,14.50
2018-10-12T06:21:47.720Z,13.90
2018-10-12T06:24:16.120Z,14.93
2018-10-12T06:26:44.383Z,13.90
2018-10-12T06:29:12.583Z,12.80
2018-10-12T06:31:40.748Z,13.50
2018-10-12T06:34:08.862Z,13.57
2018-10-12T06:36:37.109Z,13.13
2018-10-12T06:39:06.245Z,11.63
2018-10-12T06:41:34.724Z,10.77
2018-10-12T06:44:02.829Z,10.83
2018-10-12T06:46:31.132Z,9.97
2018-10-12T06:48:59.241Z,10.03
2018-10-12T06:51:27.630Z,9.80
2018-10-12T06:53:56.029Z,9.40
2018-10-12T06:56:24.265Z,9.30
2018-10-12T06:58:52.455Z,9.33
2018-10-12T07:01:20.854Z,9.47
2018-10-12T07:03:49.394Z,9.17
2018-10-12T07:06:17.735Z,8.27
2018-10-12T07:08:46.124Z,9.27
2018-10-12T07:11:14.303Z,9.27
2018-10-12T07:13:42.742Z,9.53
2018-10-12T07:16:10.933Z,10.07
2018-10-12T07:18:39.125Z,10.03
2018-10-12T07:21:07.815Z,10.23
2018-10-12T07:23:35.991Z,10.50
2018-10-12T07:26:04.521Z,9.40
2018-10-12T07:28:33.044Z,9.50
2018-10-12T07:31:01.332Z,9.57
2018-10-12T07:33:29.530Z,10.47
2018-10-12T07:35:57.716Z,10.50
2018-10-12T07:38:25.982Z,10.97
2018-10-12T07:40:54.111Z,10.20
2018-10-12T07:43:23.421Z,10.03
2018-10-12T07:45:51.616Z,10.03
2018-10-12T07:48:19.857Z,9.53
2018-10-12T07:50:47.987Z,10.47
2018-10-12T07:53:16.365Z,10.20
2018-10-12T07:55:44.473Z,10.00
2018-10-12T07:58:12.855Z,10.43
2018-10-12T08:00:41.268Z,10.33
2018-10-12T08:03:09.402Z,9.80
2018-10-12T08:05:38.002Z,9.43
2018-10-12T08:08:06.240Z,9.47
2018-10-12T08:10:34.525Z,9.53
2018-10-12T08:13:02.711Z,9.30
2018-10-12T08:15:30.968Z,9.60
2018-10-12T08:17:59.342Z,10.13
2018-10-12T08:20:27.704Z,9.87
2018-10-12T08:22:56.283Z,9.90
2018-10-12T08:25:24.575Z,10.03
2018-10-12T08:27:52.880Z,9.87
2018-10-12T08:30:21.126Z,8.77
2018-10-12T08:32:49.849Z,8.87
2018-10-12T08:35:18.222Z,8.13
2018-10-12T08:37:46.425Z,8.37
2018-10-12T08:40:14.646Z,8.00
2018-10-12T08:42:43.204Z,8.63
2018-10-12T08:45:11.418Z,7.70
2018-10-12T08:47:39.604Z,8.20
2018-10-12T08:50:07.922Z,7.53
2018-10-12T08:52:36.129Z,7.40
2018-10-12T08:55:04.409Z,7.77
2018-10-12T08:57:32.631Z,7.33
2018-10-12T09:00:00.738Z,7.47
2018-10-12T09:02:28.965Z,6.60
2018-10-12T09:04:57.206Z,5.77
2018-10-12T09:07:26.057Z,6.27
2018-10-12T09:09:54.402Z,6.47
2018-10-12T09:12:22.683Z,6.77
2018-10-12T09:14:51.015Z,6.23
2018-10-12T09:17:19.476Z,6.40
2018-10-12T09:19:47.688Z,6.07
2018-10-12T09:22:16.907Z,6.20
2018-10-12T09:24:45.286Z,6.90
2018-10-12T09:27:13.598Z,5.97
2018-10-12T09:29:41.813Z,6.12
2018-10-12T09:32:10.264Z,6.87
2018-10-12T09:34:38.553Z,6.77
2018-10-12T09:37:07.000Z,6.60
2018-10-12T09:39:35.678Z,7.77
2018-10-12T09:42:03.874Z,7.67
2018-10-12T09:44:32.369Z,7.60
2018-10-12T09:47:00.823Z,6.50
2018-10-12T09:49:29.142Z,6.83
2018-10-12T09:51:57.398Z,6.47
2018-10-12T09:54:25.754Z,6.73
2018-10-12T09:57:00.190Z,6.40
2018-10-12T09:59:28.920Z,6.03
2018-10-12T10:02:02.821Z,6.10
2018-10-12T10:04:32.316Z,5.78
2018-10-12T10:07:02.065Z,5.45
2018-10-12T10:09:30.614Z,5.95
2018-10-12T10:12:04.013Z,5.33
2018-10-12T10:14:32.407Z,5.78
2018-10-12T10:17:00.590Z,5.40
2018-10-12T10:19:28.793Z,4.90
2018-10-12T10:21:56.961Z,4.92
2018-10-12T10:24:25.568Z,4.90
2018-10-12T10:26:53.865Z,4.78
2018-10-12T10:29:22.250Z,4.50
2018-10-12T10:31:50.771Z,4.40
2018-10-12T10:34:19.343Z,4.55
2018-10-12T10:36:48.098Z,4.28
2018-10-12T10:39:16.251Z,4.22
2018-10-12T10:41:44.742Z,3.90
2018-10-12T10:44:13.027Z,3.47
2018-10-12T10:46:41.354Z,3.87
2018-10-12T10:49:09.624Z,3.05
2018-10-12T10:51:37.933Z,3.08
2018-10-12T10:54:06.206Z,3.30
2018-10-12T10:56:34.453Z,3.30
2018-10-12T10:59:02.809Z,3.57
2018-10-12T11:01:30.940Z,3.60
2018-10-12T11:03:59.354Z,3.33
2018-10-12T11:06:27.756Z,3.47
2018-10-12T11:08:56.105Z,2.70
2018-10-12T11:11:24.242Z,2.70
2018-10-12T11:13:52.409Z,3.00
2018-10-12T11:16:20.895Z,3.00
2018-10-12T11:18:49.215Z,2.73
2018-10-12T11:21:17.630Z,3.13
2018-10-12T11:23:45.974Z,3.40
2018-10-12T11:26:14.460Z,3.03
2018-10-12T11:28:42.848Z,3.13
2018-10-12T11:31:10.990Z,2.90
2018-10-12T11:33:39.174Z,2.83
2018-10-12T11:36:07.498Z,3.10
2018-10-12T11:38:35.759Z,2.77
2018-10-12T11:41:04.504Z,3.20
2018-10-12T11:43:34.339Z,6.70
2018-10-12T11:46:03.078Z,3.30
2018-10-12T11:48:31.559Z,2.87
2018-10-12T11:51:00.513Z,2.90
2018-10-12T11:53:29.780Z,2.97
2018-10-12T11:55:58.118Z,2.80
2018-10-12T11:58:26.415Z,2.97
2018-10-12T12:00:55.210Z,2.73
2018-10-12T12:03:23.749Z,2.50
2018-10-12T12:05:52.768Z,2.60
2018-10-12T12:08:21.036Z,2.50
2018-10-12T12:10:49.408Z,2.60
2018-10-12T12:13:17.698Z,2.37
2018-10-12T12:15:45.988Z,2.60
2018-10-12T12:18:14.484Z,3.00
2018-10-12T12:20:42.690Z,2.60
2018-10-12T12:23:10.977Z,2.70
2018-10-12T12:25:39.317Z,2.90
2018-10-12T12:28:07.833Z,2.57
2018-10-12T12:30:36.098Z,2.47
2018-10-12T12:33:04.405Z,2.43
2018-10-12T12:35:33.162Z,2.60
2018-10-12T12:38:01.336Z,2.63
2018-10-12T12:40:29.732Z,2.43
2018-10-12T12:42:58.051Z,2.60
2018-10-12T12:45:26.442Z,2.33
2018-10-12T12:47:54.806Z,2.60
2018-10-12T12:50:22.902Z,2.57
2018-10-12T12:52:51.059Z,2.40
2018-10-12T12:55:19.306Z,2.10
2018-10-12T12:57:47.539Z,2.33
2018-10-12T13:00:16.024Z,2.53
2018-10-12T13:02:44.208Z,2.53
2018-10-12T13:05:12.548Z,2.33
2018-10-12T13:07:40.744Z,2.50
2018-10-12T13:10:09.264Z,2.30
2018-10-12T13:12:37.456Z,2.53
2018-10-12T13:15:06.061Z,2.43
2018-10-12T13:17:34.599Z,2.27
2018-10-12T13:20:02.850Z,2.40
2018-10-12T13:22:31.032Z,2.33
2018-10-12T13:24:59.172Z,2.40
2018-10-12T13:27:27.685Z,2.53
2018-10-12T13:29:55.973Z,2.33
2018-10-12T13:32:24.237Z,2.30
2018-10-12T13:34:52.579Z,2.47
2018-10-12T13:37:20.892Z,2.33
2018-10-12T13:39:49.099Z,2.40
2018-10-12T13:42:17.391Z,2.17
2018-10-12T13:44:45.688Z,1.90
2018-10-12T13:47:14.159Z,1.93
2018-10-12T13:49:42.648Z,2.03
2018-10-12T13:52:10.774Z,1.80
2018-10-12T13:54:38.859Z,2.03
2018-10-12T13:57:07.250Z,2.00
2018-10-12T13:59:35.565Z,2.40
2018-10-12T14:02:03.820Z,4.33
2018-10-12T14:04:32.084Z,2.23
2018-10-12T14:07:00.196Z,2.20
2018-10-12T14:09:28.544Z,2.70
2018-10-12T14:11:56.995Z,2.47
2018-10-12T14:14:25.365Z,2.23
2018-10-12T14:16:53.520Z,2.20
2018-10-12T14:19:22.373Z,2.10
2018-10-12T14:21:50.552Z,2.20
2018-10-12T14:24:18.744Z,2.30
2018-10-12T14:26:47.018Z,2.20
2018-10-12T14:29:15.336Z,2.20
2018-10-12T14:31:43.492Z,2.30
2018-10-12T14:34:11.848Z,1.80
2018-10-12T14:36:40.356Z,2.00
2018-10-12T14:39:10.027Z,2.00
2018-10-12T14:41:38.410Z,2.03
2018-10-12T14:44:06.983Z,2.00
2018-10-12T14:46:35.010Z,2.03
2018-10-12T14:49:03.182Z,2.03
2018-10-12T14:51:31.883Z,2.03
2018-10-12T14:54:00.505Z,1.80
2018-10-12T14:56:29.074Z,1.90
2018-10-12T14:58:57.513Z,1.77
2018-10-12T15:01:25.699Z,2.00
2018-10-12T15:03:54.087Z,2.07
2018-10-12T15:06:22.263Z,2.33
2018-10-12T15:08:50.635Z,1.90
2018-10-12T15:11:19.121Z,2.30
2018-10-12T15:13:57.363Z,2.10
2018-10-12T15:16:25.646Z,2.20
2018-10-12T15:18:53.892Z,2.40
2018-10-12T15:21:22.449Z,2.10
2018-10-12T15:23:50.644Z,2.20
2018-10-12T15:26:19.635Z,2.00
2018-10-12T15:28:48.040Z,2.10
2018-10-12T15:31:16.680Z,2.10
2018-10-12T15:33:44.917Z,2.30
2018-10-12T15:36:13.621Z,2.17
2018-10-12T15:38:42.953Z,2.70
2018-10-12T15:41:11.161Z,2.47
2018-10-12T15:43:39.711Z,2.30
2018-10-12T15:46:09.930Z,2.30
2018-10-12T15:48:38.127Z,2.57
2018-10-12T15:51:06.346Z,2.50
2018-10-12T15:53:34.710Z,2.60
2018-10-12T15:56:03.809Z,2.37
2018-10-12T15:58:31.959Z,2.57
2018-10-12T16:01:00.255Z,2.80
2018-10-12T16:03:28.475Z,3.03
2018-10-12T16:05:56.835Z,2.30
2018-10-12T16:08:25.449Z,2.70
2018-10-12T16:10:53.854Z,3.00
2018-10-12T16:13:22.162Z,3.40
2018-10-12T16:15:50.339Z,2.80
2018-10-12T16:18:18.763Z,3.20
2018-10-12T16:20:46.860Z,2.83
2018-10-12T16:23:15.012Z,3.10
2018-10-12T16:26:02.711Z,3.67
2018-10-12T16:28:31.013Z,3.30
2018-10-12T16:30:59.347Z,3.80
2018-10-12T16:33:27.584Z,3.70
2018-10-12T16:35:57.057Z,4.07
2018-10-12T16:38:25.220Z,4.33
2018-10-12T16:40:53.592Z,4.27
2018-10-12T16:43:21.725Z,4.50
2018-10-12T16:45:50.764Z,4.80
2018-10-12T16:48:18.976Z,4.33
2018-10-12T16:50:47.651Z,5.03
2018-10-12T16:53:15.798Z,4.43
2018-10-12T16:55:44.024Z,5.30
2018-10-12T16:58:13.277Z,4.90
2018-10-12T17:00:41.505Z,5.63
2018-10-12T17:03:09.742Z,5.60
2018-10-12T17:05:41.340Z,6.07
2018-10-12T17:08:09.624Z,5.97
2018-10-12T17:10:37.761Z,6.67
2018-10-12T17:13:06.081Z,5.50
2018-10-12T17:15:34.312Z,5.70
2018-10-12T17:18:02.579Z,5.47
2018-10-12T17:20:32.256Z,5.40
2018-10-12T17:23:00.524Z,5.30
2018-10-12T17:25:29.102Z,4.87
2018-10-12T17:27:57.168Z,5.40
2018-10-12T17:30:25.544Z,5.00
2018-10-12T17:32:53.920Z,5.70
2018-10-12T17:35:22.032Z,6.60
2018-10-12T17:37:50.173Z,5.80
2018-10-12T17:40:18.302Z,5.87
2018-10-12T17:42:46.802Z,6.90
2018-10-12T17:45:15.001Z,6.70
2018-10-12T17:47:43.318Z,8.27
2018-10-12T17:50:11.846Z,13.70
2018-10-12T17:52:40.148Z,9.63
2018-10-12T17:55:08.510Z,9.00
2018-10-12T17:57:36.720Z,10.60
2018-10-12T18:00:05.746Z,9.80
2018-10-12T18:02:33.875Z,10.00
2018-10-12T18:05:02.057Z,9.00
2018-10-12T18:07:30.366Z,8.87
2018-10-12T18:09:58.517Z,9.50
2018-10-12T18:12:26.752Z,8.90
2018-10-12T18:14:55.140Z,9.23
2018-10-12T18:17:23.454Z,9.00
2018-10-12T18:19:51.730Z,9.00
2018-10-12T18:22:19.957Z,8.80
2018-10-12T18:24:48.212Z,9.23
2018-10-12T18:27:16.570Z,9.10
2018-10-12T18:29:44.796Z,9.67
2018-10-12T18:32:12.960Z,10.07
2018-10-12T18:34:41.330Z,9.40
2018-10-12T18:37:09.403Z,8.60
2018-10-12T18:39:37.626Z,9.00
2018-10-12T18:42:05.855Z,10.37
2018-10-12T18:44:34.133Z,9.60
2018-10-12T18:47:02.237Z,10.30
2018-10-12T18:49:30.405Z,10.63
2018-10-12T18:51:58.724Z,9.90
2018-10-12T18:54:26.800Z,9.90
2018-10-12T18:56:54.930Z,10.50
2018-10-12T18:59:23.089Z,10.00
2018-10-12T19:01:51.390Z,10.47
2018-10-12T19:04:19.569Z,10.13
2018-10-12T19:06:48.681Z,10.37
2018-10-12T19:09:16.790Z,9.90
2018-10-12T19:12:48.211Z,10.00
2018-10-12T19:15:16.663Z,11.00
2018-10-12T19:17:44.809Z,10.17
2018-10-12T19:20:13.018Z,11.63
2018-10-12T19:22:41.473Z,10.63
2018-10-12T19:25:09.932Z,10.83
2018-10-12T19:27:38.194Z,11.13
2018-10-12T19:30:06.514Z,11.23
2018-10-12T19:32:34.817Z,10.63
2018-10-12T19:35:03.270Z,10.33
2018-10-12T19:37:31.599Z,10.83
2018-10-12T19:39:59.793Z,11.67
2018-10-12T19:42:28.298Z,12.67
2018-10-12T19:44:56.513Z,11.80
2018-10-12T19:47:24.658Z,12.47
2018-10-12T19:49:52.701Z,12.83
2018-10-12T19:52:20.803Z,13.73
2018-10-12T19:54:49.211Z,12.57
2018-10-12T19:57:17.581Z,16.93
2018-10-12T19:59:45.655Z,16.57
2018-10-12T20:02:13.791Z,14.33
2018-10-12T20:04:41.896Z,15.93
2018-10-12T20:07:10.005Z,15.43
2018-10-12T20:09:38.407Z,15.03
2018-10-12T20:12:06.731Z,19.40
2018-10-12T20:14:35.095Z,31.53
2018-10-12T20:17:03.170Z,34.13
2018-10-12T20:19:31.154Z,51.97
2018-10-12T20:21:59.265Z,134.97
2018-10-12T20:24:27.334Z,218.03
2018-10-12T20:26:55.946Z,152.23
2018-10-12T20:29:24.213Z,149.00
2018-10-12T20:31:52.664Z,143.23
2018-10-12T20:34:20.923Z,94.90
2018-10-12T20:36:49.368Z,97.23
2018-10-12T20:39:18.688Z,65.63
2018-10-12T20:41:47.164Z,60.10
2018-10-12T20:44:15.377Z,82.57
2018-10-12T20:46:43.722Z,118.17
2018-10-12T20:49:11.898Z,78.77
2018-10-12T20:51:40.614Z,68.33
2018-10-12T20:54:08.849Z,61.80
2018-10-12T20:56:37.164Z,62.23
2018-10-12T20:59:08.279Z,64.33
2018-10-12T21:01:36.507Z,65.87
2018-10-12T21:04:05.326Z,68.00
2018-10-12T21:06:33.514Z,68.97
2018-10-12T21:09:01.756Z,74.50
2018-10-12T21:14:50.044Z,56.60
2018-10-12T21:17:19.327Z,48.83
2018-10-12T21:19:47.838Z,38.10
2018-10-12T21:22:16.784Z,24.93
2018-10-12T21:24:45.678Z,31.97
2018-10-12T21:27:15.486Z,31.70
2018-10-12T21:29:48.592Z,32.27
2018-10-12T21:32:17.657Z,32.47
2018-10-12T21:34:46.864Z,32.87
2018-10-12T21:37:15.866Z,31.27
2018-10-12T21:39:44.965Z,33.77
2018-10-12T21:42:13.366Z,31.17
2018-10-12T21:44:42.423Z,32.00
2018-10-12T21:47:11.447Z,34.77
2018-10-12T21:49:39.840Z,30.93
2018-10-12T21:52:08.801Z,29.53
2018-10-12T21:54:36.957Z,28.97
2018-10-12T21:57:05.107Z,26.13
2018-10-12T21:59:33.419Z,25.00
2018-10-12T22:02:02.097Z,22.83
2018-10-12T22:04:30.630Z,24.60
2018-10-12T22:06:58.935Z,25.50
2018-10-12T22:09:27.178Z,21.60
2018-10-12T22:11:55.416Z,20.30
2018-10-12T22:14:23.573Z,20.37
2018-10-12T22:16:52.234Z,20.37
2018-10-12T22:19:20.585Z,22.30
2018-10-12T22:21:48.892Z,19.03
2018-10-12T22:24:17.300Z,21.33
2018-10-12T22:26:45.415Z,22.23
2018-10-12T22:29:13.769Z,20.93
2018-10-12T22:31:42.327Z,18.80
2018-10-12T22:34:10.593Z,19.13
2018-10-12T22:36:38.973Z,18.27
2018-10-12T22:39:08.962Z,17.40
2018-10-12T22:41:37.169Z,17.70
2018-10-12T22:44:05.509Z,15.93
2018-10-12T22:46:34.884Z,15.97
2018-10-12T22:49:03.185Z,16.57
2018-10-12T22:51:31.624Z,14.87
2018-10-12T22:53:59.726Z,16.07
2018-10-12T22:56:28.587Z,15.97
2018-10-12T22:58:56.875Z,14.77
2018-10-12T23:01:25.004Z,14.47
2018-10-12T23:03:53.207Z,13.77
2018-10-12T23:06:21.395Z,13.87
2018-10-12T23:08:49.842Z,15.10
2018-10-12T23:11:18.223Z,15.57
2018-10-12T23:13:46.535Z,14.53
2018-10-12T23:16:14.846Z,13.27
2018-10-12T23:18:43.046Z,14.30
2018-10-12T23:21:11.202Z,16.83
2018-10-12T23:23:39.508Z,16.87
2018-10-12T23:26:08.045Z,14.83
2018-10-12T23:28:36.216Z,14.33
2018-10-12T23:31:04.578Z,14.97
2018-10-12T23:33:50.028Z,14.77
2018-10-12T23:36:18.202Z,15.07
2018-10-12T23:38:46.568Z,15.30
2018-10-12T23:41:14.859Z,14.17
2018-10-12T23:43:43.065Z,14.13
2018-10-12T23:46:11.325Z,14.10
2018-10-12T23:48:39.553Z,14.30
2018-10-12T23:51:07.765Z,14.67
2018-10-12T23:53:36.693Z,14.63
2018-10-12T23:56:05.145Z,15.10
2018-10-12T23:58:33.504Z,14.33
